createdAt,value
2018-07-04T00:03:38.982Z,21.40
2018-07-04T00:07:44.375Z,21.30
2018-07-04T00:11:43.343Z,21.30
2018-07-04T00:15:49.509Z,21.20
2018-07-04T00:19:54.676Z,21.20
2018-07-04T00:23:59.895Z,21.20
2018-07-04T00:28:05.386Z,21.20
2018-07-04T00:32:10.603Z,21.20
2018-07-04T00:36:15.889Z,21.20
2018-07-04T00:40:21.523Z,21.20
2018-07-04T00:44:26.951Z,21.20
2018-07-04T00:48:32.318Z,21.20
2018-07-04T00:52:37.448Z,21.20
2018-07-04T00:56:42.734Z,21.10
2018-07-04T01:00:47.966Z,21.00
2018-07-04T01:04:53.167Z,20.70
2018-07-04T01:08:58.778Z,20.70
2018-07-04T01:12:57.756Z,20.60
2018-07-04T01:17:03.224Z,20.60
2018-07-04T01:21:12.985Z,20.60
2018-07-04T01:25:18.246Z,20.50
2018-07-04T01:29:24.532Z,20.50
2018-07-04T01:33:29.951Z,20.50
2018-07-04T01:37:35.339Z,20.40
2018-07-04T01:41:41.066Z,20.40
2018-07-04T01:45:46.346Z,20.40
2018-07-04T01:49:51.703Z,20.40
2018-07-04T01:53:56.972Z,20.40
2018-07-04T01:58:02.359Z,20.40
2018-07-04T02:02:07.832Z,20.20
2018-07-04T02:06:13.242Z,20.30
2018-07-04T02:10:18.622Z,20.20
2018-07-04T02:14:24.071Z,20.10
2018-07-04T02:18:23.246Z,20.10
2018-07-04T02:22:28.469Z,20.10
2018-07-04T02:26:33.610Z,20.00
2018-07-04T02:30:38.728Z,20.00
2018-07-04T02:34:44.070Z,20.00
2018-07-04T02:38:49.343Z,20.00
2018-07-04T02:42:54.663Z,19.90
2018-07-04T02:47:00.162Z,19.90
2018-07-04T02:51:05.718Z,19.90
2018-07-04T02:55:11.176Z,19.90
2018-07-04T02:59:16.354Z,19.80
2018-07-04T03:03:21.631Z,19.90
2018-07-04T03:07:26.764Z,19.90
2018-07-04T03:11:32.123Z,19.90
2018-07-04T03:15:33.025Z,19.90
2018-07-04T03:19:38.293Z,19.90
2018-07-04T03:23:43.843Z,19.80
2018-07-04T03:27:49.181Z,19.80
2018-07-04T03:31:54.458Z,19.80
2018-07-04T03:35:59.778Z,19.80
2018-07-04T03:40:05.043Z,19.80
2018-07-04T03:44:10.375Z,19.80
2018-07-04T03:48:15.783Z,19.70
2018-07-04T03:52:21.233Z,19.80
2018-07-04T03:56:20.486Z,19.70
2018-07-04T04:00:25.734Z,19.70
2018-07-04T04:04:31.016Z,19.70
2018-07-04T04:08:36.281Z,19.70
2018-07-04T04:12:35.384Z,19.70
2018-07-04T04:16:40.824Z,19.70
2018-07-04T04:20:45.953Z,19.80
2018-07-04T04:24:51.357Z,19.80
2018-07-04T04:28:57.794Z,19.90
2018-07-04T04:33:03.240Z,20.00
2018-07-04T04:37:08.396Z,19.90
2018-07-04T04:41:13.599Z,19.90
2018-07-04T04:49:18.669Z,19.90
2018-07-04T04:53:23.977Z,19.90
2018-07-04T04:57:29.474Z,20.00
2018-07-04T05:01:34.914Z,20.10
2018-07-04T05:05:40.383Z,20.20
2018-07-04T05:09:45.667Z,20.20
2018-07-04T05:13:44.674Z,20.20
2018-07-04T05:17:50.015Z,20.30
2018-07-04T05:21:55.413Z,20.40
2018-07-04T05:26:00.720Z,20.40
2018-07-04T05:30:06.148Z,20.50
2018-07-04T05:34:11.510Z,20.60
2018-07-04T05:38:16.674Z,20.60
2018-07-04T05:42:21.803Z,20.70
2018-07-04T05:46:27.277Z,20.90
2018-07-04T05:50:32.609Z,21.00
2018-07-04T05:54:37.829Z,21.00
2018-07-04T05:58:43.031Z,21.10
2018-07-04T06:02:48.503Z,21.20
2018-07-04T06:06:53.657Z,21.40
2018-07-04T06:10:59.206Z,21.60
2018-07-04T06:14:58.638Z,21.60
2018-07-04T06:19:03.959Z,21.80
2018-07-04T06:23:09.161Z,22.00
2018-07-04T06:27:14.632Z,22.10
2018-07-04T06:31:20.108Z,22.10
2018-07-04T06:35:25.258Z,22.40
2018-07-04T06:39:18.154Z,22.60
2018-07-04T06:43:11.083Z,22.70
2018-07-04T06:47:04.059Z,22.80
2018-07-04T06:50:57.032Z,22.80
2018-07-04T06:54:50.555Z,22.70
2018-07-04T06:58:43.495Z,22.90
2018-07-04T07:02:36.386Z,23.00
2018-07-04T07:06:41.953Z,22.90
2018-07-04T07:10:47.905Z,23.00
2018-07-04T07:14:46.867Z,23.20
2018-07-04T07:18:52.035Z,23.20
2018-07-04T07:22:57.723Z,23.20
2018-07-04T07:27:03.236Z,23.20
2018-07-04T07:31:10.793Z,23.10
2018-07-04T07:35:18.643Z,23.30
2018-07-04T07:39:24.773Z,23.50
2018-07-04T07:43:30.146Z,23.60
2018-07-04T07:47:35.644Z,23.80
2018-07-04T07:51:41.419Z,23.90
2018-07-04T07:55:47.321Z,24.10
2018-07-04T07:59:52.699Z,24.10
2018-07-04T08:03:58.030Z,24.20
2018-07-04T08:08:03.306Z,24.30
2018-07-04T08:12:03.308Z,24.30
2018-07-04T08:16:10.951Z,24.40
2018-07-04T08:20:16.066Z,24.60
2018-07-04T08:24:22.426Z,24.80
2018-07-04T08:28:35.409Z,24.90
2018-07-04T08:32:43.346Z,24.90
2018-07-04T08:36:49.505Z,24.90
2018-07-04T08:40:50.206Z,25.20
2018-07-04T08:44:57.456Z,25.50
2018-07-04T08:49:03.318Z,25.60
2018-07-04T08:53:09.450Z,25.80
2018-07-04T08:57:15.455Z,25.90
2018-07-04T09:01:21.809Z,26.00
2018-07-04T09:05:33.101Z,26.20
2018-07-04T09:09:42.078Z,26.40
2018-07-04T09:13:53.941Z,26.60
2018-07-04T09:18:03.314Z,26.80
2018-07-04T09:22:09.037Z,26.90
2018-07-04T09:26:14.407Z,27.00
2018-07-04T09:30:19.649Z,27.00
2018-07-04T09:34:28.200Z,27.20
2018-07-04T09:38:38.049Z,27.30
2018-07-04T09:42:52.663Z,27.50
2018-07-04T09:47:04.561Z,27.70
2018-07-04T09:51:15.507Z,28.00
2018-07-04T09:55:25.063Z,28.30
2018-07-04T09:59:35.415Z,28.70
2018-07-04T10:03:41.693Z,28.90
2018-07-04T10:07:47.108Z,29.10
2018-07-04T10:11:52.619Z,29.40
2018-07-04T10:16:15.327Z,29.30
2018-07-04T10:24:46.771Z,29.00
2018-07-04T10:29:04.264Z,28.90
2018-07-04T10:33:15.487Z,28.80
2018-07-04T10:37:25.092Z,28.70
2018-07-04T10:41:31.720Z,28.60
2018-07-04T10:45:44.254Z,28.60
2018-07-04T10:49:59.870Z,28.80
2018-07-04T11:07:13.615Z,28.50
2018-07-04T11:11:19.231Z,28.70
2018-07-04T11:15:19.965Z,28.90
2018-07-04T11:19:30.415Z,29.00
2018-07-04T11:28:18.886Z,29.30
2018-07-04T11:32:24.318Z,29.40
2018-07-04T11:36:29.741Z,29.40
2018-07-04T11:40:36.223Z,29.60
2018-07-04T11:44:46.630Z,29.70
2018-07-04T11:48:42.950Z,30.00
2018-07-04T11:52:36.818Z,29.90
2018-07-04T11:56:29.942Z,29.90
2018-07-04T12:00:22.983Z,29.90
2018-07-04T12:04:29.783Z,29.90
2018-07-04T12:08:24.117Z,30.00
2018-07-04T12:12:18.527Z,29.80
2018-07-04T12:16:11.598Z,29.80
2018-07-04T12:20:05.004Z,29.90
2018-07-04T12:23:58.052Z,29.80
2018-07-04T12:31:44.167Z,29.60
2018-07-04T12:35:41.185Z,29.70
2018-07-04T12:39:34.132Z,29.80
2018-07-04T12:43:27.726Z,29.90
2018-07-04T12:47:20.751Z,29.90
2018-07-04T12:51:13.887Z,30.10
2018-07-04T12:55:19.169Z,30.20
2018-07-04T12:59:24.446Z,30.10
2018-07-04T13:03:36.305Z,30.20
2018-07-04T13:07:42.127Z,30.30
2018-07-04T13:11:47.435Z,30.40
2018-07-04T13:15:46.747Z,30.60
2018-07-04T13:19:52.407Z,30.60
2018-07-04T13:23:57.890Z,30.60
2018-07-04T13:28:03.389Z,30.60
2018-07-04T13:32:09.333Z,30.60
2018-07-04T13:36:14.491Z,30.60
2018-07-04T13:40:21.407Z,30.50
2018-07-04T13:44:27.124Z,30.50
2018-07-04T13:48:32.433Z,30.40
2018-07-04T13:52:38.006Z,30.50
2018-07-04T13:56:43.351Z,30.50
2018-07-04T14:00:50.565Z,30.60
2018-07-04T14:04:55.798Z,30.80
2018-07-04T14:09:02.294Z,30.70
2018-07-04T14:13:01.381Z,30.80
2018-07-04T14:17:07.422Z,30.80
2018-07-04T14:21:12.662Z,30.80
2018-07-04T14:25:20.146Z,31.10
2018-07-04T14:29:28.187Z,31.20
2018-07-04T14:33:34.553Z,31.10
2018-07-04T14:37:40.000Z,31.00
2018-07-04T14:41:46.597Z,31.00
2018-07-04T14:45:52.405Z,30.90
2018-07-04T14:49:57.583Z,30.70
2018-07-04T14:54:02.925Z,30.40
2018-07-04T14:58:12.146Z,30.30
2018-07-04T15:02:17.383Z,30.30
2018-07-04T15:06:28.195Z,30.40
2018-07-04T15:10:33.523Z,30.10
2018-07-04T15:14:33.060Z,30.10
2018-07-04T15:18:38.391Z,30.00
2018-07-04T15:22:43.667Z,29.80
2018-07-04T15:26:48.973Z,29.70
2018-07-04T15:30:54.366Z,29.70
2018-07-04T15:35:00.337Z,29.60
2018-07-04T15:39:05.690Z,29.60
2018-07-04T15:43:11.212Z,29.60
2018-07-04T15:47:16.456Z,29.70
2018-07-04T15:51:22.587Z,29.80
2018-07-04T15:55:27.906Z,29.80
2018-07-04T15:59:33.341Z,29.90
2018-07-04T16:03:38.827Z,30.00
2018-07-04T16:07:44.171Z,29.90
2018-07-04T16:11:49.584Z,29.80
2018-07-04T16:15:48.578Z,29.70
2018-07-04T16:19:54.090Z,29.70
2018-07-04T16:23:59.578Z,29.50
2018-07-04T16:28:04.962Z,29.30
2018-07-04T16:32:10.412Z,29.20
2018-07-04T16:36:16.247Z,29.20
2018-07-04T16:40:21.707Z,29.30
2018-07-04T16:44:26.953Z,29.30
2018-07-04T16:48:32.363Z,29.40
2018-07-04T16:52:37.551Z,29.50
2018-07-04T16:56:43.081Z,29.40
2018-07-04T17:00:48.382Z,29.30
2018-07-04T17:04:53.718Z,29.10
2018-07-04T17:08:59.261Z,28.90
2018-07-04T17:13:05.822Z,28.80
2018-07-04T17:17:04.857Z,28.70
2018-07-04T17:21:10.571Z,28.60
2018-07-04T17:25:16.128Z,28.40
2018-07-04T17:29:21.683Z,28.40
2018-07-04T17:33:27.184Z,28.40
2018-07-04T17:37:33.092Z,28.20
2018-07-04T17:41:39.570Z,28.20
2018-07-04T17:45:45.207Z,28.10
2018-07-04T17:49:50.708Z,28.10
2018-07-04T17:53:57.808Z,28.10
2018-07-04T17:58:02.967Z,28.00
2018-07-04T18:02:08.467Z,27.80
2018-07-04T18:06:15.449Z,27.70
2018-07-04T18:10:21.026Z,27.60
2018-07-04T18:14:21.205Z,27.50
2018-07-04T18:22:38.984Z,27.40
2018-07-04T18:26:44.914Z,27.30
2018-07-04T18:30:50.116Z,27.20
2018-07-04T18:34:55.421Z,27.10
2018-07-04T18:43:12.423Z,26.90
2018-07-04T18:47:17.729Z,26.80
2018-07-04T18:51:23.146Z,26.80
2018-07-04T18:55:28.623Z,26.70
2018-07-04T18:59:33.974Z,26.60
2018-07-04T19:03:39.500Z,26.60
2018-07-04T19:07:44.959Z,26.50
2018-07-04T19:11:50.223Z,26.30
2018-07-04T19:15:50.419Z,26.10
2018-07-04T19:19:56.247Z,26.00
2018-07-04T19:32:13.750Z,25.90
2018-07-04T19:36:20.146Z,25.80
2018-07-04T19:40:25.554Z,25.70
2018-07-04T19:44:31.816Z,25.60
2018-07-04T19:48:37.176Z,25.60
2018-07-04T19:52:42.954Z,25.60
2018-07-04T19:56:48.239Z,25.50
2018-07-04T20:00:54.205Z,25.50
2018-07-04T20:04:59.910Z,25.50
2018-07-04T20:09:06.596Z,25.40
2018-07-04T20:13:12.005Z,25.30
2018-07-04T20:17:11.208Z,25.30
2018-07-04T20:21:16.349Z,25.20
2018-07-04T20:25:22.731Z,25.20
2018-07-04T20:29:28.436Z,25.10
2018-07-04T21:17:44.855Z,24.20
2018-07-04T21:21:50.338Z,24.20
2018-07-04T21:25:55.899Z,24.30
2018-07-04T21:30:02.455Z,24.20
2018-07-04T21:34:13.465Z,24.20
2018-07-04T21:38:21.538Z,24.20
2018-07-04T21:42:27.740Z,24.30
2018-07-04T21:46:33.761Z,24.20
2018-07-04T21:55:01.837Z,24.10
2018-07-04T21:59:08.081Z,24.00
2018-07-04T22:03:13.546Z,24.00
2018-07-04T22:11:41.668Z,24.00
2018-07-04T22:15:48.858Z,23.90
2018-07-04T22:19:57.340Z,23.90
2018-07-04T22:24:02.852Z,23.80
2018-07-04T22:28:12.784Z,23.70
2018-07-04T22:36:43.659Z,23.60
2018-07-04T22:40:48.926Z,23.60
2018-07-04T22:44:54.568Z,23.40
2018-07-04T22:49:01.375Z,23.40
2018-07-04T22:53:10.659Z,23.30
2018-07-04T22:57:21.751Z,23.20
2018-07-04T23:01:27.911Z,23.10
2018-07-04T23:05:34.780Z,23.20
2018-07-04T23:09:40.352Z,23.10
2018-07-04T23:13:45.745Z,23.10
2018-07-04T23:17:45.074Z,23.10
2018-07-04T23:21:50.639Z,22.90
2018-07-04T23:30:31.047Z,22.50
2018-07-04T23:34:44.014Z,22.50
2018-07-04T23:38:49.776Z,22.40
2018-07-04T23:42:56.888Z,22.30
2018-07-04T23:47:03.631Z,22.30
2018-07-04T23:51:09.226Z,22.20
2018-07-04T23:55:15.338Z,22.10
2018-07-04T23:59:21.469Z,22.00
